SWA120 KLAS-KSNA
Flight info
| Callsign | SWA120 |
|---|---|
| Flight time | 0h 37m |
| Altitude | 26000 |
| Route | RADYR2 SLVRR FEYLA DSNEE6 |
| Aircraft | B737/M-SDE2E3FGHIRWXY/LB1 |
Departure
| Time | 2026-05-07 22:49 |
|---|---|
| Airport | Harry Reid International Airport (KLAS) |
Arrival
| Time | 2026-05-07 23:27 |
|---|---|
| Airport | John Wayne Orange County International Airport (KSNA) |
| Time | Latitude | Longitude | Altitude | Speed | Heading |
|---|---|---|---|---|---|
| 2026-05-07 22:15 | 36.08235 | -115.15277 | 2096 ft | 0 kts | 357° |
| 2026-05-07 22:35 | 36.08233 | -115.15276 | 2096 ft | 2 kts | 357° |
| 2026-05-07 22:35 | 36.08208 | -115.15275 | 2096 ft | 4 kts | 360° |
| 2026-05-07 22:35 | 36.08180 | -115.15276 | 2096 ft | 4 kts | 1° |
| 2026-05-07 22:35 | 36.08154 | -115.15277 | 2096 ft | 4 kts | 1° |
| 2026-05-07 22:36 | 36.08127 | -115.15277 | 2096 ft | 4 kts | 353° |
| 2026-05-07 22:36 | 36.08104 | -115.15268 | 2096 ft | 4 kts | 303° |
| 2026-05-07 22:36 | 36.08101 | -115.15263 | 2096 ft | 1 kts | 283° |
| 2026-05-07 22:39 | 36.08104 | -115.15277 | 2096 ft | 4 kts | 283° |
| 2026-05-07 22:39 | 36.08110 | -115.15312 | 2096 ft | 4 kts | 283° |
| 2026-05-07 22:39 | 36.08113 | -115.15324 | 2096 ft | 0 kts | 283° |
| 2026-05-07 22:43 | 36.08119 | -115.15353 | 2096 ft | 8 kts | 282° |
| 2026-05-07 22:44 | 36.08139 | -115.15422 | 2096 ft | 8 kts | 296° |
| 2026-05-07 22:44 | 36.08169 | -115.15482 | 2097 ft | 8 kts | 309° |
| 2026-05-07 22:44 | 36.08215 | -115.15527 | 2098 ft | 9 kts | 327° |
| 2026-05-07 22:44 | 36.08275 | -115.15562 | 2098 ft | 11 kts | 335° |
| 2026-05-07 22:45 | 36.08367 | -115.15617 | 2099 ft | 19 kts | 334° |
| 2026-05-07 22:45 | 36.08488 | -115.15686 | 2101 ft | 19 kts | 336° |
| 2026-05-07 22:45 | 36.08609 | -115.15757 | 2104 ft | 20 kts | 333° |
| 2026-05-07 22:45 | 36.08738 | -115.15773 | 2105 ft | 19 kts | 20° |
| 2026-05-07 22:46 | 36.08864 | -115.15703 | 2102 ft | 23 kts | 25° |
| 2026-05-07 22:46 | 36.09031 | -115.15606 | 2099 ft | 29 kts | 25° |
| 2026-05-07 22:46 | 36.09209 | -115.15507 | 2097 ft | 27 kts | 24° |
| 2026-05-07 22:46 | 36.09388 | -115.15402 | 2097 ft | 30 kts | 25° |
| 2026-05-07 22:47 | 36.09576 | -115.15295 | 2096 ft | 29 kts | 26° |
| 2026-05-07 22:47 | 36.09758 | -115.15216 | 2095 ft | 26 kts | 343° |
| 2026-05-07 22:47 | 36.09797 | -115.15269 | 2094 ft | 9 kts | 299° |
| 2026-05-07 22:47 | 36.09786 | -115.15392 | 2093 ft | 18 kts | 215° |
| 2026-05-07 22:48 | 36.09759 | -115.15412 | 2093 ft | 0 kts | 206° |
| 2026-05-07 22:48 | 36.09639 | -115.15482 | 2096 ft | 57 kts | 205° |
| 2026-05-07 22:49 | 36.08735 | -115.16003 | 2118 ft | 155 kts | 205° |
| 2026-05-07 22:49 | 36.08008 | -115.16430 | 2297 ft | 182 kts | 206° |
| 2026-05-07 22:49 | 36.06771 | -115.17159 | 2724 ft | 221 kts | 207° |
| 2026-05-07 22:49 | 36.05325 | -115.18018 | 3487 ft | 225 kts | 206° |
| 2026-05-07 22:50 | 36.03877 | -115.18871 | 4236 ft | 240 kts | 205° |
| 2026-05-07 22:50 | 36.02308 | -115.19795 | 4787 ft | 263 kts | 206° |
| 2026-05-07 22:50 | 36.00600 | -115.20801 | 5542 ft | 276 kts | 205° |
| 2026-05-07 22:50 | 35.98838 | -115.21697 | 6595 ft | 277 kts | 201° |
| 2026-05-07 22:51 | 35.97015 | -115.22524 | 7575 ft | 282 kts | 201° |
| 2026-05-07 22:51 | 35.95154 | -115.23350 | 8505 ft | 287 kts | 202° |
| 2026-05-07 22:51 | 35.93259 | -115.24192 | 9460 ft | 291 kts | 202° |
| 2026-05-07 22:51 | 35.91337 | -115.25050 | 10351 ft | 298 kts | 203° |
| 2026-05-07 22:52 | 35.89312 | -115.25962 | 10717 ft | 324 kts | 202° |
| 2026-05-07 22:52 | 35.87105 | -115.26961 | 10917 ft | 352 kts | 201° |
| 2026-05-07 22:52 | 35.84743 | -115.28028 | 11356 ft | 368 kts | 201° |
| 2026-05-07 22:52 | 35.82312 | -115.29125 | 12125 ft | 374 kts | 201° |
| 2026-05-07 22:53 | 35.79852 | -115.30234 | 12955 ft | 378 kts | 201° |
| 2026-05-07 22:53 | 35.77363 | -115.31358 | 13749 ft | 384 kts | 200° |
| 2026-05-07 22:53 | 35.74838 | -115.32498 | 14449 ft | 389 kts | 200° |
| 2026-05-07 22:53 | 35.72283 | -115.33652 | 15194 ft | 393 kts | 200° |
| 2026-05-07 22:54 | 35.69705 | -115.34816 | 15972 ft | 397 kts | 200° |
| 2026-05-07 22:54 | 35.67092 | -115.35996 | 16666 ft | 402 kts | 200° |
| 2026-05-07 22:54 | 35.64444 | -115.37190 | 17353 ft | 408 kts | 200° |
| 2026-05-07 22:54 | 35.61785 | -115.38463 | 18040 ft | 413 kts | 207° |
| 2026-05-07 22:55 | 35.59457 | -115.40546 | 18626 ft | 417 kts | 227° |
| 2026-05-07 22:55 | 35.57488 | -115.43171 | 19292 ft | 419 kts | 230° |
| 2026-05-07 22:55 | 35.55540 | -115.45867 | 19889 ft | 424 kts | 230° |
| 2026-05-07 22:55 | 35.53598 | -115.48564 | 20489 ft | 429 kts | 230° |
| 2026-05-07 22:56 | 35.51604 | -115.51312 | 21101 ft | 433 kts | 230° |
| 2026-05-07 22:56 | 35.49579 | -115.54076 | 21721 ft | 436 kts | 230° |
| 2026-05-07 22:56 | 35.47562 | -115.56805 | 22836 ft | 426 kts | 230° |
| 2026-05-07 22:56 | 35.45582 | -115.59473 | 23805 ft | 421 kts | 230° |
| 2026-05-07 22:57 | 35.43599 | -115.62140 | 24360 ft | 425 kts | 230° |
| 2026-05-07 22:57 | 35.41568 | -115.64872 | 24831 ft | 431 kts | 229° |
| 2026-05-07 22:57 | 35.39569 | -115.67561 | 25375 ft | 434 kts | 229° |
| 2026-05-07 22:57 | 35.37529 | -115.70301 | 25934 ft | 436 kts | 229° |
| 2026-05-07 22:58 | 35.35470 | -115.73064 | 26468 ft | 440 kts | 229° |
| 2026-05-07 22:58 | 35.33401 | -115.75835 | 27089 ft | 440 kts | 229° |
| 2026-05-07 22:58 | 35.31335 | -115.78592 | 27739 ft | 439 kts | 229° |
| 2026-05-07 22:58 | 35.29261 | -115.81357 | 27913 ft | 440 kts | 229° |
| 2026-05-07 22:59 | 35.27198 | -115.84107 | 27916 ft | 438 kts | 229° |
| 2026-05-07 22:59 | 35.25140 | -115.86849 | 27931 ft | 438 kts | 229° |
| 2026-05-07 22:59 | 35.23077 | -115.89595 | 27924 ft | 438 kts | 229° |
| 2026-05-07 22:59 | 35.20994 | -115.92319 | 27925 ft | 439 kts | 228° |
| 2026-05-07 23:00 | 35.18872 | -115.95011 | 27901 ft | 440 kts | 227° |
| 2026-05-07 23:00 | 35.16734 | -115.97688 | 27902 ft | 440 kts | 227° |
| 2026-05-07 23:00 | 35.14598 | -116.00364 | 27907 ft | 440 kts | 227° |
| 2026-05-07 23:00 | 35.12466 | -116.03045 | 27890 ft | 440 kts | 227° |
| 2026-05-07 23:01 | 35.10335 | -116.05728 | 27889 ft | 439 kts | 227° |
| 2026-05-07 23:01 | 35.08206 | -116.08407 | 27891 ft | 439 kts | 227° |
| 2026-05-07 23:01 | 35.06071 | -116.11089 | 27898 ft | 443 kts | 227° |
| 2026-05-07 23:01 | 35.03902 | -116.13814 | 27896 ft | 451 kts | 227° |
| 2026-05-07 23:02 | 35.01698 | -116.16580 | 27892 ft | 456 kts | 227° |
| 2026-05-07 23:02 | 34.99487 | -116.19350 | 27882 ft | 455 kts | 227° |
| 2026-05-07 23:02 | 34.97280 | -116.22110 | 27874 ft | 454 kts | 227° |
| 2026-05-07 23:02 | 34.95072 | -116.24872 | 27875 ft | 453 kts | 227° |
| 2026-05-07 23:03 | 34.92898 | -116.27591 | 27870 ft | 453 kts | 227° |
| 2026-05-07 23:03 | 34.90704 | -116.30331 | 27879 ft | 452 kts | 227° |
| 2026-05-07 23:03 | 34.88480 | -116.33106 | 27882 ft | 451 kts | 227° |
| 2026-05-07 23:03 | 34.86331 | -116.35812 | 27882 ft | 450 kts | 227° |
| 2026-05-07 23:04 | 34.84166 | -116.38571 | 27893 ft | 450 kts | 227° |
| 2026-05-07 23:04 | 34.82007 | -116.41333 | 27813 ft | 451 kts | 227° |
| 2026-05-07 23:04 | 34.79826 | -116.44121 | 27162 ft | 454 kts | 227° |
| 2026-05-07 23:04 | 34.77655 | -116.46891 | 26524 ft | 453 kts | 227° |
| 2026-05-07 23:05 | 34.75485 | -116.49652 | 25889 ft | 450 kts | 227° |
| 2026-05-07 23:05 | 34.73326 | -116.52395 | 25302 ft | 447 kts | 227° |
| 2026-05-07 23:05 | 34.71214 | -116.55074 | 25150 ft | 432 kts | 227° |
| 2026-05-07 23:05 | 34.69154 | -116.57677 | 24921 ft | 423 kts | 226° |
| 2026-05-07 23:06 | 34.67025 | -116.60146 | 24386 ft | 425 kts | 223° |
| 2026-05-07 23:06 | 34.64805 | -116.62531 | 23882 ft | 426 kts | 222° |
| 2026-05-07 23:06 | 34.62556 | -116.64898 | 23293 ft | 428 kts | 222° |
| 2026-05-07 23:06 | 34.60312 | -116.67269 | 22671 ft | 426 kts | 222° |
| 2026-05-07 23:07 | 34.58101 | -116.69630 | 22095 ft | 422 kts | 222° |
| 2026-05-07 23:07 | 34.55914 | -116.71984 | 21541 ft | 417 kts | 222° |
| 2026-05-07 23:07 | 34.53760 | -116.74312 | 21001 ft | 413 kts | 222° |
| 2026-05-07 23:07 | 34.51620 | -116.76624 | 20486 ft | 409 kts | 222° |
| 2026-05-07 23:08 | 34.49501 | -116.78909 | 19952 ft | 406 kts | 222° |
| 2026-05-07 23:08 | 34.47398 | -116.81174 | 19433 ft | 403 kts | 222° |
| 2026-05-07 23:08 | 34.45320 | -116.83409 | 18899 ft | 395 kts | 222° |
| 2026-05-07 23:08 | 34.43284 | -116.85600 | 18369 ft | 388 kts | 222° |
| 2026-05-07 23:09 | 34.41280 | -116.87754 | 17805 ft | 384 kts | 222° |
| 2026-05-07 23:09 | 34.39287 | -116.89895 | 17281 ft | 381 kts | 222° |
| 2026-05-07 23:09 | 34.37313 | -116.92016 | 16745 ft | 378 kts | 222° |
| 2026-05-07 23:09 | 34.35354 | -116.94118 | 16221 ft | 375 kts | 221° |
| 2026-05-07 23:10 | 34.33403 | -116.96211 | 15701 ft | 373 kts | 222° |
| 2026-05-07 23:10 | 34.31468 | -116.98286 | 15182 ft | 371 kts | 222° |
| 2026-05-07 23:10 | 34.29541 | -117.00351 | 14674 ft | 368 kts | 222° |
| 2026-05-07 23:10 | 34.27635 | -117.02390 | 14181 ft | 363 kts | 222° |
| 2026-05-07 23:11 | 34.25706 | -117.04236 | 13869 ft | 351 kts | 213° |
| 2026-05-07 23:11 | 34.23645 | -117.05715 | 13598 ft | 338 kts | 209° |
| 2026-05-07 23:11 | 34.21609 | -117.07097 | 13356 ft | 325 kts | 210° |
| 2026-05-07 23:11 | 34.19696 | -117.08430 | 13181 ft | 319 kts | 211° |
| 2026-05-07 23:12 | 34.17794 | -117.09784 | 12978 ft | 315 kts | 211° |
| 2026-05-07 23:12 | 34.15878 | -117.11040 | 12853 ft | 312 kts | 205° |
| 2026-05-07 23:12 | 34.13893 | -117.12107 | 12746 ft | 313 kts | 203° |
| 2026-05-07 23:12 | 34.11874 | -117.13145 | 12657 ft | 319 kts | 203° |
| 2026-05-07 23:13 | 34.09830 | -117.14200 | 12538 ft | 319 kts | 204° |
| 2026-05-07 23:13 | 34.07800 | -117.15264 | 12404 ft | 317 kts | 204° |
| 2026-05-07 23:13 | 34.05785 | -117.16334 | 12296 ft | 315 kts | 204° |
| 2026-05-07 23:13 | 34.03777 | -117.17406 | 12176 ft | 315 kts | 204° |
| 2026-05-07 23:14 | 34.01771 | -117.18480 | 12062 ft | 317 kts | 204° |
| 2026-05-07 23:14 | 33.99776 | -117.19669 | 12005 ft | 324 kts | 216° |
| 2026-05-07 23:14 | 33.98144 | -117.21557 | 11634 ft | 327 kts | 232° |
| 2026-05-07 23:14 | 33.96702 | -117.23654 | 11317 ft | 322 kts | 232° |
| 2026-05-07 23:15 | 33.95281 | -117.25694 | 10975 ft | 314 kts | 232° |
| 2026-05-07 23:15 | 33.93880 | -117.27672 | 10661 ft | 307 kts | 231° |
| 2026-05-07 23:15 | 33.92501 | -117.29617 | 10357 ft | 304 kts | 231° |
| 2026-05-07 23:15 | 33.91135 | -117.31552 | 10071 ft | 304 kts | 232° |
| 2026-05-07 23:16 | 33.89783 | -117.33468 | 9777 ft | 305 kts | 231° |
| 2026-05-07 23:16 | 33.88408 | -117.35416 | 9438 ft | 305 kts | 232° |
| 2026-05-07 23:16 | 33.87038 | -117.37354 | 9123 ft | 301 kts | 232° |
| 2026-05-07 23:16 | 33.85686 | -117.39265 | 8814 ft | 297 kts | 232° |
| 2026-05-07 23:17 | 33.84355 | -117.41142 | 8515 ft | 293 kts | 233° |
| 2026-05-07 23:17 | 33.83040 | -117.42997 | 8231 ft | 289 kts | 232° |
| 2026-05-07 23:17 | 33.81794 | -117.44854 | 8005 ft | 278 kts | 242° |
| 2026-05-07 23:17 | 33.81058 | -117.46905 | 7982 ft | 256 kts | 253° |
| 2026-05-07 23:18 | 33.80458 | -117.48873 | 7975 ft | 251 kts | 252° |
| 2026-05-07 23:18 | 33.79863 | -117.50826 | 7973 ft | 244 kts | 254° |
| 2026-05-07 23:18 | 33.79740 | -117.52799 | 7889 ft | 237 kts | 279° |
| 2026-05-07 23:18 | 33.80234 | -117.54663 | 7573 ft | 236 kts | 294° |
| 2026-05-07 23:19 | 33.80869 | -117.56441 | 7240 ft | 219 kts | 294° |
| 2026-05-07 23:19 | 33.81430 | -117.58023 | 6941 ft | 199 kts | 293° |
| 2026-05-07 23:19 | 33.81970 | -117.59562 | 6287 ft | 201 kts | 293° |
| 2026-05-07 23:19 | 33.82513 | -117.61120 | 5583 ft | 202 kts | 293° |
| 2026-05-07 23:20 | 33.82988 | -117.62703 | 4863 ft | 200 kts | 280° |
| 2026-05-07 23:20 | 33.83088 | -117.64299 | 4544 ft | 182 kts | 275° |
| 2026-05-07 23:20 | 33.83177 | -117.65732 | 4402 ft | 162 kts | 275° |
| 2026-05-07 23:20 | 33.83262 | -117.67041 | 4204 ft | 151 kts | 275° |
| 2026-05-07 23:21 | 33.83314 | -117.68296 | 4097 ft | 151 kts | 272° |
| 2026-05-07 23:21 | 33.83314 | -117.69558 | 3960 ft | 150 kts | 271° |
| 2026-05-07 23:21 | 33.83310 | -117.70807 | 3815 ft | 148 kts | 271° |
| 2026-05-07 23:21 | 33.83307 | -117.72044 | 3683 ft | 148 kts | 271° |
| 2026-05-07 23:22 | 33.83304 | -117.73296 | 3570 ft | 150 kts | 272° |
| 2026-05-07 23:22 | 33.83301 | -117.74538 | 3461 ft | 146 kts | 272° |
| 2026-05-07 23:22 | 33.83299 | -117.75783 | 3351 ft | 151 kts | 271° |
| 2026-05-07 23:22 | 33.82957 | -117.76971 | 3207 ft | 156 kts | 227° |
| 2026-05-07 23:23 | 33.82027 | -117.77653 | 3056 ft | 162 kts | 213° |
| 2026-05-07 23:23 | 33.81041 | -117.78296 | 2839 ft | 160 kts | 211° |
| 2026-05-07 23:23 | 33.80073 | -117.78920 | 2637 ft | 155 kts | 212° |
| 2026-05-07 23:23 | 33.79133 | -117.79521 | 2441 ft | 152 kts | 210° |
| 2026-05-07 23:24 | 33.78196 | -117.80121 | 2221 ft | 152 kts | 210° |
| 2026-05-07 23:24 | 33.77266 | -117.80715 | 2026 ft | 151 kts | 209° |
| 2026-05-07 23:24 | 33.76334 | -117.81311 | 1834 ft | 151 kts | 210° |
| 2026-05-07 23:24 | 33.75417 | -117.81895 | 1636 ft | 148 kts | 210° |
| 2026-05-07 23:25 | 33.74546 | -117.82449 | 1460 ft | 135 kts | 210° |
| 2026-05-07 23:25 | 33.73734 | -117.82967 | 1267 ft | 130 kts | 208° |
| 2026-05-07 23:25 | 33.72921 | -117.83484 | 1129 ft | 135 kts | 208° |
| 2026-05-07 23:25 | 33.72102 | -117.84004 | 932 ft | 133 kts | 206° |
| 2026-05-07 23:26 | 33.71276 | -117.84528 | 772 ft | 133 kts | 207° |
| 2026-05-07 23:26 | 33.70456 | -117.85054 | 597 ft | 129 kts | 207° |
| 2026-05-07 23:26 | 33.69669 | -117.85558 | 409 ft | 130 kts | 208° |
| 2026-05-07 23:26 | 33.68867 | -117.86064 | 234 ft | 132 kts | 209° |
| 2026-05-07 23:27 | 33.67401 | -117.86991 | 55 ft | 65 kts | 207° |
| 2026-05-07 23:27 | 33.67127 | -117.87167 | 54 ft | 18 kts | 209° |
| 2026-05-07 23:27 | 33.67030 | -117.87218 | 52 ft | 15 kts | 191° |
| 2026-05-07 23:28 | 33.66927 | -117.87176 | 55 ft | 14 kts | 131° |
| 2026-05-07 23:28 | 33.66923 | -117.87169 | 56 ft | 0 kts | 123° |
| 2026-05-07 23:28 | 33.66920 | -117.87163 | 56 ft | 4 kts | 122° |
| 2026-05-07 23:29 | 33.66916 | -117.87107 | 55 ft | 9 kts | 72° |
| 2026-05-07 23:29 | 33.66959 | -117.87047 | 57 ft | 10 kts | 41° |
| 2026-05-07 23:29 | 33.67010 | -117.86995 | 53 ft | 9 kts | 40° |
| 2026-05-07 23:29 | 33.67059 | -117.86945 | 57 ft | 9 kts | 40° |
| 2026-05-07 23:30 | 33.67107 | -117.86896 | 56 ft | 9 kts | 39° |
| 2026-05-07 23:30 | 33.67157 | -117.86853 | 54 ft | 9 kts | 33° |
| 2026-05-07 23:30 | 33.67209 | -117.86816 | 56 ft | 8 kts | 29° |
| 2026-05-07 23:30 | 33.67264 | -117.86779 | 55 ft | 10 kts | 32° |
| 2026-05-07 23:31 | 33.67325 | -117.86713 | 52 ft | 14 kts | 40° |
| 2026-05-07 23:31 | 33.67414 | -117.86647 | 51 ft | 17 kts | 29° |
| 2026-05-07 23:31 | 33.67527 | -117.86575 | 54 ft | 20 kts | 27° |
| 2026-05-07 23:31 | 33.67593 | -117.86530 | 54 ft | 4 kts | 48° |
| 2026-05-07 23:32 | 33.67586 | -117.86495 | 54 ft | 4 kts | 116° |
| 2026-05-07 23:32 | 33.67575 | -117.86471 | 54 ft | 2 kts | 118° |
| 2026-05-07 23:32 | 33.67571 | -117.86462 | 54 ft | 0 kts | 118° |